sensor_id;sensor_type;location;lat;lon;timestamp;P1;durP1;ratioP1;P2;durP2;ratioP2
17369;SDS011;8802;52.402;4.920;2023-01-23T00:02:04;11.75;;;7.22;;
17369;SDS011;8802;52.402;4.920;2023-01-23T00:04:30;9.93;;;8.10;;
17369;SDS011;8802;52.402;4.920;2023-01-23T00:06:59;9.90;;;7.55;;
17369;SDS011;8802;52.402;4.920;2023-01-23T00:09:27;8.80;;;7.70;;
17369;SDS011;8802;52.402;4.920;2023-01-23T00:11:54;10.68;;;7.82;;
17369;SDS011;8802;52.402;4.920;2023-01-23T00:14:21;12.23;;;8.57;;
17369;SDS011;8802;52.402;4.920;2023-01-23T00:16:48;10.52;;;8.38;;
17369;SDS011;8802;52.402;4.920;2023-01-23T00:19:14;10.00;;;8.10;;
17369;SDS011;8802;52.402;4.920;2023-01-23T00:21:41;11.90;;;8.20;;
17369;SDS011;8802;52.402;4.920;2023-01-23T00:24:10;11.23;;;8.35;;
17369;SDS011;8802;52.402;4.920;2023-01-23T00:26:38;10.90;;;8.43;;
17369;SDS011;8802;52.402;4.920;2023-01-23T00:29:05;9.68;;;7.75;;
17369;SDS011;8802;52.402;4.920;2023-01-23T00:31:32;10.85;;;7.90;;
17369;SDS011;8802;52.402;4.920;2023-01-23T00:34:01;12.93;;;8.13;;
17369;SDS011;8802;52.402;4.920;2023-01-23T00:36:30;10.82;;;8.30;;
17369;SDS011;8802;52.402;4.920;2023-01-23T00:38:58;12.77;;;8.52;;
17369;SDS011;8802;52.402;4.920;2023-01-23T00:41:27;10.27;;;7.68;;
17369;SDS011;8802;52.402;4.920;2023-01-23T00:43:54;12.40;;;8.55;;
17369;SDS011;8802;52.402;4.920;2023-01-23T00:46:21;8.82;;;7.18;;
17369;SDS011;8802;52.402;4.920;2023-01-23T00:48:48;13.05;;;8.70;;
17369;SDS011;8802;52.402;4.920;2023-01-23T00:51:15;10.73;;;9.10;;
17369;SDS011;8802;52.402;4.920;2023-01-23T00:53:42;12.48;;;9.35;;
17369;SDS011;8802;52.402;4.920;2023-01-23T00:56:09;11.55;;;7.90;;
17369;SDS011;8802;52.402;4.920;2023-01-23T00:58:37;9.15;;;7.78;;
17369;SDS011;8802;52.402;4.920;2023-01-23T01:01:06;11.15;;;8.27;;
17369;SDS011;8802;52.402;4.920;2023-01-23T01:03:33;10.00;;;8.65;;
17369;SDS011;8802;52.402;4.920;2023-01-23T01:06:00;10.80;;;8.88;;
17369;SDS011;8802;52.402;4.920;2023-01-23T01:08:27;12.02;;;9.25;;
17369;SDS011;8802;52.402;4.920;2023-01-23T01:10:54;11.00;;;8.18;;
17369;SDS011;8802;52.402;4.920;2023-01-23T01:13:21;8.98;;;8.07;;
17369;SDS011;8802;52.402;4.920;2023-01-23T01:15:50;10.50;;;7.80;;
17369;SDS011;8802;52.402;4.920;2023-01-23T01:18:18;11.52;;;7.82;;
17369;SDS011;8802;52.402;4.920;2023-01-23T01:20:46;8.82;;;7.80;;
17369;SDS011;8802;52.402;4.920;2023-01-23T01:23:13;14.55;;;8.82;;
17369;SDS011;8802;52.402;4.920;2023-01-23T01:25:41;10.65;;;8.35;;
17369;SDS011;8802;52.402;4.920;2023-01-23T01:28:07;9.63;;;7.88;;
17369;SDS011;8802;52.402;4.920;2023-01-23T01:30:34;9.77;;;8.38;;
17369;SDS011;8802;52.402;4.920;2023-01-23T01:33:03;13.02;;;8.98;;
17369;SDS011;8802;52.402;4.920;2023-01-23T01:35:30;9.93;;;7.47;;
17369;SDS011;8802;52.402;4.920;2023-01-23T01:37:57;10.00;;;7.82;;
17369;SDS011;8802;52.402;4.920;2023-01-23T01:40:26;8.60;;;7.68;;
17369;SDS011;8802;52.402;4.920;2023-01-23T01:42:57;8.88;;;7.32;;
17369;SDS011;8802;52.402;4.920;2023-01-23T01:48:31;11.93;;;8.55;;
17369;SDS011;8802;52.402;4.920;2023-01-23T01:51:00;9.45;;;7.22;;
17369;SDS011;8802;52.402;4.920;2023-01-23T01:53:32;8.48;;;6.93;;
17369;SDS011;8802;52.402;4.920;2023-01-23T01:56:00;9.80;;;8.50;;
17369;SDS011;8802;52.402;4.920;2023-01-23T01:58:27;9.13;;;7.53;;
17369;SDS011;8802;52.402;4.920;2023-01-23T02:00:55;9.43;;;7.22;;
17369;SDS011;8802;52.402;4.920;2023-01-23T02:03:22;10.68;;;7.90;;
17369;SDS011;8802;52.402;4.920;2023-01-23T02:05:51;8.73;;;7.82;;
17369;SDS011;8802;52.402;4.920;2023-01-23T02:08:19;12.70;;;7.70;;
17369;SDS011;8802;52.402;4.920;2023-01-23T02:10:49;11.73;;;7.68;;
17369;SDS011;8802;52.402;4.920;2023-01-23T02:13:18;10.63;;;8.27;;
17369;SDS011;8802;52.402;4.920;2023-01-23T02:15:50;11.43;;;8.82;;
17369;SDS011;8802;52.402;4.920;2023-01-23T02:18:18;10.43;;;7.85;;
17369;SDS011;8802;52.402;4.920;2023-01-23T02:20:46;10.18;;;8.05;;
17369;SDS011;8802;52.402;4.920;2023-01-23T02:23:18;9.30;;;7.75;;
17369;SDS011;8802;52.402;4.920;2023-01-23T02:26:00;12.20;;;7.65;;
17369;SDS011;8802;52.402;4.920;2023-01-23T02:28:37;10.60;;;7.68;;
17369;SDS011;8802;52.402;4.920;2023-01-23T02:31:05;10.73;;;7.75;;
17369;SDS011;8802;52.402;4.920;2023-01-23T02:33:46;12.05;;;7.80;;
17369;SDS011;8802;52.402;4.920;2023-01-23T02:36:15;7.53;;;6.72;;
17369;SDS011;8802;52.402;4.920;2023-01-23T02:38:44;9.05;;;7.55;;
17369;SDS011;8802;52.402;4.920;2023-01-23T02:41:22;12.13;;;8.45;;
17369;SDS011;8802;52.402;4.920;2023-01-23T02:43:52;11.43;;;7.72;;
17369;SDS011;8802;52.402;4.920;2023-01-23T02:46:22;11.05;;;8.18;;
17369;SDS011;8802;52.402;4.920;2023-01-23T02:48:50;10.88;;;8.98;;
17369;SDS011;8802;52.402;4.920;2023-01-23T02:51:17;12.00;;;8.85;;
17369;SDS011;8802;52.402;4.920;2023-01-23T02:53:45;9.70;;;7.85;;
17369;SDS011;8802;52.402;4.920;2023-01-23T02:56:12;10.80;;;8.07;;
17369;SDS011;8802;52.402;4.920;2023-01-23T02:58:40;9.15;;;8.23;;
17369;SDS011;8802;52.402;4.920;2023-01-23T03:01:25;11.07;;;8.95;;
17369;SDS011;8802;52.402;4.920;2023-01-23T03:03:52;13.25;;;9.40;;
17369;SDS011;8802;52.402;4.920;2023-01-23T03:06:21;14.40;;;8.82;;
17369;SDS011;8802;52.402;4.920;2023-01-23T03:08:48;12.32;;;9.30;;
17369;SDS011;8802;52.402;4.920;2023-01-23T03:11:15;11.07;;;8.43;;
17369;SDS011;8802;52.402;4.920;2023-01-23T03:13:45;11.10;;;8.60;;
17369;SDS011;8802;52.402;4.920;2023-01-23T03:16:13;10.93;;;8.55;;
17369;SDS011;8802;52.402;4.920;2023-01-23T03:18:40;10.73;;;8.38;;
17369;SDS011;8802;52.402;4.920;2023-01-23T03:21:07;10.48;;;7.70;;
17369;SDS011;8802;52.402;4.920;2023-01-23T03:23:34;10.48;;;8.40;;
17369;SDS011;8802;52.402;4.920;2023-01-23T03:26:04;8.63;;;7.70;;
17369;SDS011;8802;52.402;4.920;2023-01-23T03:28:31;11.45;;;8.55;;
17369;SDS011;8802;52.402;4.920;2023-01-23T03:31:17;10.48;;;8.40;;
17369;SDS011;8802;52.402;4.920;2023-01-23T03:33:43;11.38;;;9.27;;
17369;SDS011;8802;52.402;4.920;2023-01-23T03:36:11;12.77;;;9.63;;
17369;SDS011;8802;52.402;4.920;2023-01-23T03:38:38;12.95;;;8.85;;
17369;SDS011;8802;52.402;4.920;2023-01-23T03:41:25;11.93;;;8.18;;
17369;SDS011;8802;52.402;4.920;2023-01-23T03:43:51;11.40;;;8.35;;
17369;SDS011;8802;52.402;4.920;2023-01-23T03:46:19;10.90;;;9.35;;
17369;SDS011;8802;52.402;4.920;2023-01-23T03:48:46;12.93;;;9.32;;
17369;SDS011;8802;52.402;4.920;2023-01-23T03:51:13;10.07;;;8.98;;
17369;SDS011;8802;52.402;4.920;2023-01-23T03:53:40;11.77;;;8.80;;
17369;SDS011;8802;52.402;4.920;2023-01-23T03:56:07;10.35;;;8.70;;
17369;SDS011;8802;52.402;4.920;2023-01-23T03:58:34;11.10;;;8.20;;
17369;SDS011;8802;52.402;4.920;2023-01-23T04:01:03;12.60;;;9.15;;
17369;SDS011;8802;52.402;4.920;2023-01-23T04:03:32;12.25;;;9.50;;
17369;SDS011;8802;52.402;4.920;2023-01-23T04:05:59;12.20;;;9.77;;
17369;SDS011;8802;52.402;4.920;2023-01-23T04:08:26;10.00;;;8.38;;
17369;SDS011;8802;52.402;4.920;2023-01-23T04:10:59;12.35;;;10.93;;
17369;SDS011;8802;52.402;4.920;2023-01-23T04:13:27;11.88;;;9.40;;
17369;SDS011;8802;52.402;4.920;2023-01-23T04:15:54;13.20;;;9.27;;
17369;SDS011;8802;52.402;4.920;2023-01-23T04:18:21;17.30;;;11.05;;
17369;SDS011;8802;52.402;4.920;2023-01-23T04:20:50;11.25;;;9.00;;
17369;SDS011;8802;52.402;4.920;2023-01-23T04:23:17;12.93;;;10.43;;
17369;SDS011;8802;52.402;4.920;2023-01-23T04:25:43;12.35;;;10.02;;
17369;SDS011;8802;52.402;4.920;2023-01-23T04:28:10;13.18;;;10.25;;
17369;SDS011;8802;52.402;4.920;2023-01-23T04:30:37;13.13;;;10.55;;
17369;SDS011;8802;52.402;4.920;2023-01-23T04:33:04;14.45;;;9.70;;
17369;SDS011;8802;52.402;4.920;2023-01-23T04:35:32;12.20;;;10.13;;
17369;SDS011;8802;52.402;4.920;2023-01-23T04:38:00;13.00;;;10.90;;
17369;SDS011;8802;52.402;4.920;2023-01-23T04:40:27;13.90;;;10.77;;
17369;SDS011;8802;52.402;4.920;2023-01-23T04:42:54;12.95;;;10.38;;
17369;SDS011;8802;52.402;4.920;2023-01-23T04:45:21;11.90;;;10.50;;
17369;SDS011;8802;52.402;4.920;2023-01-23T04:47:48;11.18;;;9.77;;
17369;SDS011;8802;52.402;4.920;2023-01-23T04:50:15;11.45;;;9.63;;
17369;SDS011;8802;52.402;4.920;2023-01-23T04:52:42;14.07;;;12.35;;
17369;SDS011;8802;52.402;4.920;2023-01-23T04:55:10;12.63;;;10.25;;
17369;SDS011;8802;52.402;4.920;2023-01-23T04:57:37;13.13;;;10.57;;
17369;SDS011;8802;52.402;4.920;2023-01-23T05:00:04;13.50;;;10.82;;
17369;SDS011;8802;52.402;4.920;2023-01-23T05:02:32;12.27;;;10.82;;
17369;SDS011;8802;52.402;4.920;2023-01-23T05:04:59;14.02;;;10.68;;
17369;SDS011;8802;52.402;4.920;2023-01-23T05:07:25;11.80;;;10.60;;
17369;SDS011;8802;52.402;4.920;2023-01-23T05:09:52;11.50;;;10.35;;
17369;SDS011;8802;52.402;4.920;2023-01-23T05:12:20;14.57;;;10.45;;
17369;SDS011;8802;52.402;4.920;2023-01-23T05:14:47;12.05;;;10.63;;
17369;SDS011;8802;52.402;4.920;2023-01-23T05:17:14;13.38;;;10.30;;
17369;SDS011;8802;52.402;4.920;2023-01-23T05:19:41;13.40;;;10.20;;
17369;SDS011;8802;52.402;4.920;2023-01-23T05:22:08;12.45;;;11.15;;
17369;SDS011;8802;52.402;4.920;2023-01-23T05:24:35;14.75;;;11.25;;
17369;SDS011;8802;52.402;4.920;2023-01-23T05:27:02;14.10;;;11.05;;
17369;SDS011;8802;52.402;4.920;2023-01-23T05:29:30;15.63;;;11.20;;
17369;SDS011;8802;52.402;4.920;2023-01-23T05:31:57;14.60;;;11.15;;
17369;SDS011;8802;52.402;4.920;2023-01-23T05:34:24;14.85;;;12.15;;
17369;SDS011;8802;52.402;4.920;2023-01-23T05:36:51;12.95;;;11.27;;
17369;SDS011;8802;52.402;4.920;2023-01-23T05:39:18;13.23;;;10.75;;
17369;SDS011;8802;52.402;4.920;2023-01-23T05:41:46;13.55;;;12.15;;
17369;SDS011;8802;52.402;4.920;2023-01-23T05:44:12;14.05;;;11.98;;
17369;SDS011;8802;52.402;4.920;2023-01-23T05:46:41;13.48;;;11.85;;
17369;SDS011;8802;52.402;4.920;2023-01-23T05:49:07;11.23;;;10.13;;
17369;SDS011;8802;52.402;4.920;2023-01-23T05:51:34;13.40;;;11.02;;
17369;SDS011;8802;52.402;4.920;2023-01-23T05:54:02;15.38;;;12.15;;
17369;SDS011;8802;52.402;4.920;2023-01-23T05:56:29;16.17;;;13.02;;
17369;SDS011;8802;52.402;4.920;2023-01-23T05:58:56;18.05;;;16.30;;
17369;SDS011;8802;52.402;4.920;2023-01-23T06:01:23;14.73;;;11.88;;
17369;SDS011;8802;52.402;4.920;2023-01-23T06:03:51;12.13;;;10.88;;
17369;SDS011;8802;52.402;4.920;2023-01-23T06:06:18;13.77;;;10.52;;
17369;SDS011;8802;52.402;4.920;2023-01-23T06:08:45;11.93;;;10.73;;
17369;SDS011;8802;52.402;4.920;2023-01-23T06:11:11;10.88;;;9.80;;
17369;SDS011;8802;52.402;4.920;2023-01-23T06:13:38;13.55;;;11.77;;
17369;SDS011;8802;52.402;4.920;2023-01-23T06:16:05;12.48;;;10.57;;
17369;SDS011;8802;52.402;4.920;2023-01-23T06:18:33;12.05;;;10.65;;
17369;SDS011;8802;52.402;4.920;2023-01-23T06:21:02;12.63;;;11.30;;
17369;SDS011;8802;52.402;4.920;2023-01-23T06:23:29;13.38;;;11.48;;
17369;SDS011;8802;52.402;4.920;2023-01-23T06:25:58;13.77;;;11.18;;
17369;SDS011;8802;52.402;4.920;2023-01-23T06:28:25;13.15;;;10.05;;
17369;SDS011;8802;52.402;4.920;2023-01-23T06:30:52;13.88;;;11.13;;
17369;SDS011;8802;52.402;4.920;2023-01-23T06:33:19;14.95;;;11.43;;
17369;SDS011;8802;52.402;4.920;2023-01-23T06:35:46;15.60;;;11.85;;
17369;SDS011;8802;52.402;4.920;2023-01-23T06:38:14;14.75;;;12.18;;
17369;SDS011;8802;52.402;4.920;2023-01-23T06:40:42;13.52;;;11.95;;
17369;SDS011;8802;52.402;4.920;2023-01-23T06:43:09;14.07;;;12.40;;
17369;SDS011;8802;52.402;4.920;2023-01-23T06:45:36;15.50;;;12.18;;
17369;SDS011;8802;52.402;4.920;2023-01-23T06:48:02;15.90;;;12.38;;
17369;SDS011;8802;52.402;4.920;2023-01-23T06:50:29;15.00;;;12.48;;
17369;SDS011;8802;52.402;4.920;2023-01-23T06:52:56;13.68;;;12.32;;
17369;SDS011;8802;52.402;4.920;2023-01-23T06:55:24;13.73;;;12.30;;
17369;SDS011;8802;52.402;4.920;2023-01-23T06:57:51;12.15;;;10.95;;
17369;SDS011;8802;52.402;4.920;2023-01-23T07:00:18;15.48;;;12.25;;
17369;SDS011;8802;52.402;4.920;2023-01-23T07:02:46;13.40;;;12.00;;
17369;SDS011;8802;52.402;4.920;2023-01-23T07:05:13;17.05;;;12.80;;
17369;SDS011;8802;52.402;4.920;2023-01-23T07:07:40;15.57;;;12.70;;
17369;SDS011;8802;52.402;4.920;2023-01-23T07:10:07;13.05;;;11.52;;
17369;SDS011;8802;52.402;4.920;2023-01-23T07:12:36;15.73;;;12.38;;
17369;SDS011;8802;52.402;4.920;2023-01-23T07:15:03;13.48;;;11.57;;
17369;SDS011;8802;52.402;4.920;2023-01-23T07:17:31;14.30;;;12.80;;
17369;SDS011;8802;52.402;4.920;2023-01-23T07:19:58;16.42;;;12.85;;
17369;SDS011;8802;52.402;4.920;2023-01-23T07:22:25;16.42;;;12.55;;
17369;SDS011;8802;52.402;4.920;2023-01-23T07:24:51;14.23;;;12.20;;
17369;SDS011;8802;52.402;4.920;2023-01-23T07:27:18;16.92;;;14.02;;
17369;SDS011;8802;52.402;4.920;2023-01-23T07:29:47;13.90;;;12.55;;
17369;SDS011;8802;52.402;4.920;2023-01-23T07:32:14;15.15;;;13.55;;
17369;SDS011;8802;52.402;4.920;2023-01-23T07:34:41;15.68;;;13.65;;
17369;SDS011;8802;52.402;4.920;2023-01-23T07:37:07;15.88;;;12.73;;
17369;SDS011;8802;52.402;4.920;2023-01-23T07:39:34;16.95;;;14.32;;
17369;SDS011;8802;52.402;4.920;2023-01-23T07:42:01;18.10;;;14.27;;
17369;SDS011;8802;52.402;4.920;2023-01-23T07:44:28;15.65;;;12.77;;
17369;SDS011;8802;52.402;4.920;2023-01-23T07:46:56;15.55;;;12.63;;
17369;SDS011;8802;52.402;4.920;2023-01-23T07:49:23;18.45;;;14.38;;
17369;SDS011;8802;52.402;4.920;2023-01-23T07:51:50;15.05;;;12.75;;
17369;SDS011;8802;52.402;4.920;2023-01-23T07:54:17;15.48;;;13.23;;
17369;SDS011;8802;52.402;4.920;2023-01-23T07:56:44;16.42;;;12.98;;
17369;SDS011;8802;52.402;4.920;2023-01-23T07:59:11;14.55;;;12.10;;
17369;SDS011;8802;52.402;4.920;2023-01-23T08:01:37;18.60;;;12.90;;
17369;SDS011;8802;52.402;4.920;2023-01-23T08:04:06;16.02;;;14.32;;
17369;SDS011;8802;52.402;4.920;2023-01-23T08:06:33;17.25;;;14.82;;
17369;SDS011;8802;52.402;4.920;2023-01-23T08:09:00;15.30;;;13.23;;
17369;SDS011;8802;52.402;4.920;2023-01-23T08:11:27;16.42;;;14.18;;
17369;SDS011;8802;52.402;4.920;2023-01-23T08:13:54;18.23;;;15.63;;
17369;SDS011;8802;52.402;4.920;2023-01-23T08:16:21;16.15;;;13.48;;
17369;SDS011;8802;52.402;4.920;2023-01-23T08:18:48;16.92;;;13.90;;
17369;SDS011;8802;52.402;4.920;2023-01-23T08:21:16;17.08;;;14.57;;
17369;SDS011;8802;52.402;4.920;2023-01-23T08:23:43;17.60;;;14.15;;
17369;SDS011;8802;52.402;4.920;2023-01-23T08:26:10;16.70;;;14.88;;
17369;SDS011;8802;52.402;4.920;2023-01-23T08:28:38;17.60;;;14.18;;
17369;SDS011;8802;52.402;4.920;2023-01-23T08:31:06;15.85;;;14.23;;
17369;SDS011;8802;52.402;4.920;2023-01-23T08:33:34;17.15;;;14.55;;
17369;SDS011;8802;52.402;4.920;2023-01-23T08:36:03;20.60;;;15.25;;
17369;SDS011;8802;52.402;4.920;2023-01-23T08:38:35;14.18;;;12.60;;
17369;SDS011;8802;52.402;4.920;2023-01-23T08:41:02;16.83;;;15.00;;
17369;SDS011;8802;52.402;4.920;2023-01-23T08:43:30;17.58;;;13.88;;
17369;SDS011;8802;52.402;4.920;2023-01-23T08:45:57;16.55;;;14.00;;
17369;SDS011;8802;52.402;4.920;2023-01-23T08:48:25;14.73;;;13.18;;
17369;SDS011;8802;52.402;4.920;2023-01-23T08:50:57;17.60;;;13.90;;
17369;SDS011;8802;52.402;4.920;2023-01-23T08:53:25;15.05;;;12.65;;
17369;SDS011;8802;52.402;4.920;2023-01-23T08:55:57;16.77;;;14.43;;
17369;SDS011;8802;52.402;4.920;2023-01-23T08:58:25;15.98;;;14.32;;
17369;SDS011;8802;52.402;4.920;2023-01-23T09:00:51;20.73;;;15.23;;
17369;SDS011;8802;52.402;4.920;2023-01-23T09:03:18;15.20;;;13.50;;
17369;SDS011;8802;52.402;4.920;2023-01-23T09:05:45;16.85;;;13.98;;
17369;SDS011;8802;52.402;4.920;2023-01-23T09:08:12;18.95;;;15.88;;
17369;SDS011;8802;52.402;4.920;2023-01-23T09:10:39;14.77;;;12.40;;
17369;SDS011;8802;52.402;4.920;2023-01-23T09:13:07;17.10;;;13.95;;
17369;SDS011;8802;52.402;4.920;2023-01-23T09:15:36;19.25;;;16.00;;
17369;SDS011;8802;52.402;4.920;2023-01-23T09:18:03;17.90;;;15.50;;
17369;SDS011;8802;52.402;4.920;2023-01-23T09:20:30;17.77;;;15.18;;
17369;SDS011;8802;52.402;4.920;2023-01-23T09:22:57;16.40;;;13.93;;
17369;SDS011;8802;52.402;4.920;2023-01-23T09:25:24;16.70;;;15.02;;
17369;SDS011;8802;52.402;4.920;2023-01-23T09:27:51;16.20;;;14.50;;
17369;SDS011;8802;52.402;4.920;2023-01-23T09:30:19;17.50;;;14.35;;
17369;SDS011;8802;52.402;4.920;2023-01-23T09:32:46;17.38;;;13.65;;
17369;SDS011;8802;52.402;4.920;2023-01-23T09:35:13;17.35;;;15.55;;
17369;SDS011;8802;52.402;4.920;2023-01-23T09:37:40;15.65;;;13.77;;
17369;SDS011;8802;52.402;4.920;2023-01-23T09:40:25;14.98;;;13.45;;
17369;SDS011;8802;52.402;4.920;2023-01-23T09:42:56;17.35;;;15.35;;
17369;SDS011;8802;52.402;4.920;2023-01-23T09:45:28;15.10;;;13.50;;
17369;SDS011;8802;52.402;4.920;2023-01-23T09:47:59;17.08;;;13.10;;
17369;SDS011;8802;52.402;4.920;2023-01-23T09:50:36;18.73;;;15.27;;
17369;SDS011;8802;52.402;4.920;2023-01-23T09:53:13;17.00;;;14.48;;
17369;SDS011;8802;52.402;4.920;2023-01-23T09:55:45;16.10;;;13.07;;
17369;SDS011;8802;52.402;4.920;2023-01-23T09:58:17;16.98;;;14.20;;
17369;SDS011;8802;52.402;4.920;2023-01-23T10:00:51;16.80;;;15.10;;
17369;SDS011;8802;52.402;4.920;2023-01-23T10:03:18;17.77;;;15.20;;
17369;SDS011;8802;52.402;4.920;2023-01-23T10:05:48;17.38;;;14.05;;
17369;SDS011;8802;52.402;4.920;2023-01-23T10:08:27;19.13;;;15.18;;
17369;SDS011;8802;52.402;4.920;2023-01-23T10:10:59;18.70;;;14.68;;
17369;SDS011;8802;52.402;4.920;2023-01-23T10:13:37;18.42;;;16.20;;
17369;SDS011;8802;52.402;4.920;2023-01-23T10:16:34;15.20;;;13.65;;
17369;SDS011;8802;52.402;4.920;2023-01-23T10:19:15;15.95;;;13.60;;
17369;SDS011;8802;52.402;4.920;2023-01-23T10:21:58;16.10;;;14.35;;
17369;SDS011;8802;52.402;4.920;2023-01-23T10:24:34;16.33;;;13.63;;
17369;SDS011;8802;52.402;4.920;2023-01-23T10:27:14;16.45;;;13.50;;
17369;SDS011;8802;52.402;4.920;2023-01-23T10:29:45;16.02;;;14.32;;
17369;SDS011;8802;52.402;4.920;2023-01-23T10:32:20;16.70;;;14.95;;
17369;SDS011;8802;52.402;4.920;2023-01-23T10:34:52;15.88;;;13.85;;
17369;SDS011;8802;52.402;4.920;2023-01-23T10:37:28;16.75;;;15.05;;
17369;SDS011;8802;52.402;4.920;2023-01-23T10:40:06;16.05;;;13.73;;
17369;SDS011;8802;52.402;4.920;2023-01-23T10:42:38;15.07;;;13.48;;
17369;SDS011;8802;52.402;4.920;2023-01-23T10:45:05;16.08;;;14.38;;
17369;SDS011;8802;52.402;4.920;2023-01-23T10:47:42;15.88;;;13.02;;
17369;SDS011;8802;52.402;4.920;2023-01-23T10:50:11;15.27;;;13.38;;
17369;SDS011;8802;52.402;4.920;2023-01-23T10:52:39;15.98;;;14.27;;
17369;SDS011;8802;52.402;4.920;2023-01-23T10:57:55;15.00;;;13.40;;
17369;SDS011;8802;52.402;4.920;2023-01-23T11:00:26;16.73;;;14.27;;
17369;SDS011;8802;52.402;4.920;2023-01-23T11:05:54;14.68;;;13.20;;
17369;SDS011;8802;52.402;4.920;2023-01-23T11:08:26;16.75;;;13.90;;
17369;SDS011;8802;52.402;4.920;2023-01-23T11:10:57;14.77;;;13.18;;
17369;SDS011;8802;52.402;4.920;2023-01-23T11:13:47;15.23;;;13.20;;
17369;SDS011;8802;52.402;4.920;2023-01-23T11:16:15;14.68;;;13.15;;
17369;SDS011;8802;52.402;4.920;2023-01-23T11:18:48;15.38;;;13.65;;
17369;SDS011;8802;52.402;4.920;2023-01-23T11:21:19;14.60;;;11.88;;
17369;SDS011;8802;52.402;4.920;2023-01-23T11:23:46;13.82;;;12.32;;
17369;SDS011;8802;52.402;4.920;2023-01-23T11:28:56;15.30;;;13.00;;
17369;SDS011;8802;52.402;4.920;2023-01-23T11:31:23;16.25;;;12.75;;
17369;SDS011;8802;52.402;4.920;2023-01-23T11:33:55;14.85;;;13.05;;
17369;SDS011;8802;52.402;4.920;2023-01-23T11:36:27;14.68;;;13.23;;
17369;SDS011;8802;52.402;4.920;2023-01-23T11:39:11;18.15;;;13.05;;
17369;SDS011;8802;52.402;4.920;2023-01-23T11:41:44;18.40;;;13.77;;
17369;SDS011;8802;52.402;4.920;2023-01-23T11:44:12;14.70;;;13.13;;
17369;SDS011;8802;52.402;4.920;2023-01-23T11:46:49;16.27;;;14.38;;
17369;SDS011;8802;52.402;4.920;2023-01-23T11:49:45;16.27;;;13.80;;
17369;SDS011;8802;52.402;4.920;2023-01-23T11:52:30;15.18;;;12.38;;
17369;SDS011;8802;52.402;4.920;2023-01-23T11:55:12;14.07;;;12.20;;
17369;SDS011;8802;52.402;4.920;2023-01-23T11:57:59;14.23;;;12.88;;
17369;SDS011;8802;52.402;4.920;2023-01-23T12:00:33;15.80;;;14.00;;
17369;SDS011;8802;52.402;4.920;2023-01-23T12:03:17;17.27;;;15.50;;
17369;SDS011;8802;52.402;4.920;2023-01-23T12:06:18;14.38;;;12.32;;
17369;SDS011;8802;52.402;4.920;2023-01-23T12:08:56;14.55;;;12.48;;
17369;SDS011;8802;52.402;4.920;2023-01-23T12:11:32;11.60;;;10.45;;
17369;SDS011;8802;52.402;4.920;2023-01-23T12:14:03;12.73;;;10.55;;
17369;SDS011;8802;52.402;4.920;2023-01-23T12:16:41;11.55;;;10.30;;
17369;SDS011;8802;52.402;4.920;2023-01-23T12:19:21;11.73;;;10.63;;
17369;SDS011;8802;52.402;4.920;2023-01-23T12:22:03;11.52;;;10.32;;
17369;SDS011;8802;52.402;4.920;2023-01-23T12:24:43;11.90;;;10.43;;
17369;SDS011;8802;52.402;4.920;2023-01-23T12:27:20;13.07;;;11.77;;
17369;SDS011;8802;52.402;4.920;2023-01-23T12:32:55;9.52;;;8.35;;
17369;SDS011;8802;52.402;4.920;2023-01-23T12:35:32;9.57;;;7.90;;
17369;SDS011;8802;52.402;4.920;2023-01-23T12:38:14;7.72;;;6.65;;
17369;SDS011;8802;52.402;4.920;2023-01-23T12:40:49;5.88;;;4.80;;
17369;SDS011;8802;52.402;4.920;2023-01-23T12:43:32;5.28;;;4.78;;
17369;SDS011;8802;52.402;4.920;2023-01-23T12:46:04;4.75;;;4.00;;
17369;SDS011;8802;52.402;4.920;2023-01-23T12:48:35;4.53;;;4.13;;
17369;SDS011;8802;52.402;4.920;2023-01-23T12:51:06;3.95;;;3.55;;
17369;SDS011;8802;52.402;4.920;2023-01-23T12:53:39;3.50;;;3.15;;
17369;SDS011;8802;52.402;4.920;2023-01-23T12:56:10;3.25;;;2.95;;
17369;SDS011;8802;52.402;4.920;2023-01-23T12:58:41;2.90;;;2.70;;
17369;SDS011;8802;52.402;4.920;2023-01-23T13:01:16;3.15;;;2.85;;
17369;SDS011;8802;52.402;4.920;2023-01-23T13:09:38;3.25;;;2.95;;
17369;SDS011;8802;52.402;4.920;2023-01-23T13:12:16;3.08;;;2.80;;
17369;SDS011;8802;52.402;4.920;2023-01-23T13:14:47;4.63;;;2.95;;
17369;SDS011;8802;52.402;4.920;2023-01-23T13:17:29;2.90;;;2.55;;
17369;SDS011;8802;52.402;4.920;2023-01-23T13:20:23;3.33;;;3.03;;
17369;SDS011;8802;52.402;4.920;2023-01-23T13:23:20;2.70;;;2.50;;
17369;SDS011;8802;52.402;4.920;2023-01-23T13:26:12;2.33;;;2.13;;
17369;SDS011;8802;52.402;4.920;2023-01-23T13:28:53;3.13;;;2.83;;
17369;SDS011;8802;52.402;4.920;2023-01-23T13:31:24;2.90;;;2.70;;
17369;SDS011;8802;52.402;4.920;2023-01-23T13:33:57;3.90;;;3.42;;
17369;SDS011;8802;52.402;4.920;2023-01-23T13:36:31;4.15;;;3.25;;
17369;SDS011;8802;52.402;4.920;2023-01-23T13:51:22;3.92;;;3.58;;
17369;SDS011;8802;52.402;4.920;2023-01-23T13:53:50;5.50;;;4.38;;
17369;SDS011;8802;52.402;4.920;2023-01-23T13:56:37;5.32;;;4.63;;
17369;SDS011;8802;52.402;4.920;2023-01-23T13:59:07;6.00;;;5.25;;
17369;SDS011;8802;52.402;4.920;2023-01-23T14:01:43;6.72;;;6.13;;
17369;SDS011;8802;52.402;4.920;2023-01-23T14:04:54;7.07;;;6.45;;
17369;SDS011;8802;52.402;4.920;2023-01-23T14:07:37;7.80;;;6.95;;
17369;SDS011;8802;52.402;4.920;2023-01-23T14:10:14;8.68;;;7.80;;
17369;SDS011;8802;52.402;4.920;2023-01-23T14:12:43;8.50;;;7.60;;
17369;SDS011;8802;52.402;4.920;2023-01-23T14:15:16;8.45;;;7.65;;
17369;SDS011;8802;52.402;4.920;2023-01-23T14:18:10;12.23;;;10.93;;
17369;SDS011;8802;52.402;4.920;2023-01-23T14:20:42;10.40;;;9.30;;
17369;SDS011;8802;52.402;4.920;2023-01-23T14:23:14;8.43;;;7.55;;
17369;SDS011;8802;52.402;4.920;2023-01-23T14:25:44;8.07;;;7.35;;
17369;SDS011;8802;52.402;4.920;2023-01-23T14:28:13;9.25;;;8.05;;
17369;SDS011;8802;52.402;4.920;2023-01-23T14:30:51;7.93;;;7.22;;
17369;SDS011;8802;52.402;4.920;2023-01-23T14:33:23;7.78;;;7.05;;
17369;SDS011;8802;52.402;4.920;2023-01-23T14:35:51;8.43;;;7.50;;
17369;SDS011;8802;52.402;4.920;2023-01-23T14:38:23;7.97;;;7.05;;
17369;SDS011;8802;52.402;4.920;2023-01-23T14:40:54;7.32;;;6.70;;
17369;SDS011;8802;52.402;4.920;2023-01-23T14:43:22;7.80;;;6.72;;
17369;SDS011;8802;52.402;4.920;2023-01-23T14:45:56;7.07;;;6.38;;
17369;SDS011;8802;52.402;4.920;2023-01-23T14:48:31;7.63;;;6.93;;
17369;SDS011;8802;52.402;4.920;2023-01-23T14:51:07;7.75;;;6.93;;
17369;SDS011;8802;52.402;4.920;2023-01-23T14:53:40;8.45;;;6.93;;
17369;SDS011;8802;52.402;4.920;2023-01-23T14:56:08;8.45;;;7.55;;
17369;SDS011;8802;52.402;4.920;2023-01-23T14:58:36;8.40;;;6.93;;
17369;SDS011;8802;52.402;4.920;2023-01-23T15:01:04;8.23;;;7.10;;
17369;SDS011;8802;52.402;4.920;2023-01-23T15:03:39;10.73;;;9.77;;
17369;SDS011;8802;52.402;4.920;2023-01-23T15:06:08;8.18;;;7.38;;
17369;SDS011;8802;52.402;4.920;2023-01-23T15:08:39;7.20;;;6.55;;
17369;SDS011;8802;52.402;4.920;2023-01-23T15:11:06;6.80;;;6.10;;
17369;SDS011;8802;52.402;4.920;2023-01-23T15:13:45;6.95;;;6.25;;
17369;SDS011;8802;52.402;4.920;2023-01-23T15:16:16;6.82;;;6.22;;
17369;SDS011;8802;52.402;4.920;2023-01-23T15:18:52;7.25;;;6.13;;
17369;SDS011;8802;52.402;4.920;2023-01-23T15:21:27;6.45;;;5.68;;
17369;SDS011;8802;52.402;4.920;2023-01-23T15:26:55;6.30;;;5.68;;
17369;SDS011;8802;52.402;4.920;2023-01-23T15:29:40;6.03;;;5.40;;
17369;SDS011;8802;52.402;4.920;2023-01-23T15:32:12;6.13;;;5.53;;
17369;SDS011;8802;52.402;4.920;2023-01-23T15:34:49;6.07;;;5.40;;
17369;SDS011;8802;52.402;4.920;2023-01-23T15:37:19;5.70;;;5.18;;
17369;SDS011;8802;52.402;4.920;2023-01-23T15:39:49;6.78;;;6.18;;